Pagrindinis puslapis
METAR-TAF:

METAR-TAF

Oro uostai :

Akachutla, Salvadoras

platuma: 13-34N, ilguma: 089-50W, Aukštis: 15 m

Dabartinis oras

Ataskaita buvo paskelbta 6 valandos ir 18 minutes, ne 22:50 UTC
Vėjas 8 kt iš Vakarų
Temperatūra 33°C
Drėgmė 63%
Slėgis 1008 hPa
Matomumas 10 km arba daugiau
Išsisklaidę debesys ne aukštis 3300 ft

METAR: MSAC 242250Z 27008KT 9999 SCT033 33/25 Q1008 A2978

Laikas: 23:08 (05:08 UTC)


TAF: trūkstamas

Orai ataskaitas ir orų prognozės (METAR, TAF).

turimą stotys yra geltonos ir raudonos taškus žemėlapyje.

Perkelti pele per norėdami pamatyti stoties vardą.

Tada spustelėkite, norėdami matyti oro stebėjimo ir prognozės.

Norėdami pakeisti žemėlapį: spustelėkite ant žalios mygtukų su juodo kryžiaus žemyn,; žalią mygtuką su brūkšneliu, jei norite nutolinti; arba žalių rodyklių gretimoms žemėlapius.


METAR-TAF: